Time;durP1;ratioP1;P1;durP2;ratioP2;P2;SDS_P1;SDS_P2;PMS_P1;PMS_P2;Temp;Humidity;BMP_temperature;BMP_pressure;BME280_temperature;BME280_humidity;BME280_pressure;Samples;Min_cycle;Max_cycle;Signal;HPM_P1;HPM_P2
2023/02/15 00:01:15;;;;;;;34.07;18.27;;;;;;;1.48;100.00;101656.03;5101573;28;20496;-64
2023/02/15 00:03:43;;;;;;;32.77;18.73;;;;;;;1.60;100.00;101667.97;5101184;28;20469;-64
2023/02/15 00:06:09;;;;;;;30.57;16.67;;;;;;;1.64;100.00;101672.22;5114710;27;20474;-64
2023/02/15 00:08:36;;;;;;;38.27;19.10;;;;;;;1.60;100.00;101670.59;5111693;28;20480;-64
2023/02/15 00:11:07;;;;;;;33.27;18.30;;;;;;;1.57;100.00;101666.28;5102767;28;20474;-63
2023/02/15 00:13:38;;;;;;;29.70;17.20;;;;;;;1.61;100.00;101662.63;5103802;28;20462;-63
2023/02/15 00:16:07;;;;;;;29.10;17.23;;;;;;;1.58;100.00;101656.59;5102763;28;20978;-63
2023/02/15 00:18:33;;;;;;;27.07;16.80;;;;;;;1.48;100.00;101658.66;5104040;28;20428;-63
2023/02/15 00:21:04;;;;;;;29.27;17.47;;;;;;;1.49;100.00;101647.19;5102647;28;20532;-63
2023/02/15 00:23:31;;;;;;;26.87;16.70;;;;;;;1.48;100.00;101670.06;5100709;28;20436;-63
2023/02/15 00:26:05;;;;;;;29.17;18.10;;;;;;;1.46;100.00;101660.50;5081965;28;20492;-64
2023/02/15 00:28:32;;;;;;;24.77;16.07;;;;;;;1.44;100.00;101650.00;5099663;28;20586;-64
2023/02/15 00:31:04;;;;;;;29.27;17.10;;;;;;;1.45;100.00;101653.47;5102569;28;20687;-64
2023/02/15 00:33:30;;;;;;;23.00;15.93;;;;;;;1.38;100.00;101650.16;5103712;28;20443;-66
2023/02/15 00:35:58;;;;;;;29.20;17.17;;;;;;;1.35;100.00;101650.25;5102546;28;21010;-66
2023/02/15 00:38:27;;;;;;;27.37;16.30;;;;;;;1.34;100.00;101640.63;5103379;28;20472;-65
2023/02/15 00:40:54;;;;;;;28.03;17.83;;;;;;;1.30;100.00;101637.25;5094177;28;20513;-66
2023/02/15 00:43:21;;;;;;;28.30;17.33;;;;;;;1.33;100.00;101645.94;5083337;28;20483;-66
2023/02/15 00:45:47;;;;;;;28.20;16.77;;;;;;;1.21;100.00;101636.66;5077550;28;20515;-66
2023/02/15 00:48:14;;;;;;;29.90;16.70;;;;;;;1.10;100.00;101636.97;5065706;28;20480;-65
2023/02/15 00:50:40;;;;;;;28.03;16.70;;;;;;;1.01;100.00;101639.84;5062298;28;20500;-65
2023/02/15 00:53:07;;;;;;;24.27;15.37;;;;;;;0.94;100.00;101636.56;5062824;28;20463;-65
2023/02/15 00:55:36;;;;;;;27.50;16.70;;;;;;;0.93;100.00;101643.59;5062282;28;20502;-65
2023/02/15 00:58:03;;;;;;;24.73;15.40;;;;;;;0.92;100.00;101636.59;5060699;28;20490;-66
2023/02/15 01:00:30;;;;;;;25.53;15.17;;;;;;;0.86;100.00;101636.78;5065521;28;20755;-65
2023/02/15 01:02:56;;;;;;;26.37;16.67;;;;;;;0.79;100.00;101635.22;5071982;28;20472;-65
2023/02/15 01:05:23;;;;;;;26.67;15.90;;;;;;;0.77;100.00;101638.81;5077209;28;20485;-65
2023/02/15 01:07:49;;;;;;;30.00;16.10;;;;;;;0.78;100.00;101637.91;5084358;28;20471;-65
2023/02/15 01:10:16;;;;;;;31.83;19.00;;;;;;;0.79;100.00;101627.34;5089159;28;20452;-65
2023/02/15 01:12:44;;;;;;;35.27;19.90;;;;;;;0.85;100.00;101634.19;5098373;28;20553;-65
2023/02/15 01:15:11;;;;;;;31.40;17.07;;;;;;;0.84;100.00;101628.06;5096353;28;20458;-65
2023/02/15 01:17:38;;;;;;;31.30;18.50;;;;;;;0.86;100.00;101631.50;5062812;28;20441;-65
2023/02/15 01:20:06;;;;;;;28.53;15.97;;;;;;;0.84;100.00;101624.56;5065899;28;20473;-65
2023/02/15 01:22:33;;;;;;;29.03;18.20;;;;;;;0.83;100.00;101618.44;5067556;28;20462;-65
2023/02/15 01:24:59;;;;;;;29.00;17.43;;;;;;;0.82;100.00;101621.13;5061849;28;20545;-65
2023/02/15 01:27:26;;;;;;;30.40;17.90;;;;;;;0.71;100.00;101616.16;5081238;28;21004;-65
2023/02/15 01:29:54;;;;;;;32.17;18.03;;;;;;;0.71;100.00;101610.88;5082055;28;20495;-65
2023/02/15 01:32:20;;;;;;;31.60;17.93;;;;;;;0.78;100.00;101619.47;5082179;28;20479;-65
2023/02/15 01:34:47;;;;;;;33.23;17.90;;;;;;;0.74;100.00;101616.06;5097271;28;20478;-65
2023/02/15 01:37:14;;;;;;;29.17;17.10;;;;;;;0.71;100.00;101608.25;5097777;28;20518;-65
2023/02/15 01:39:40;;;;;;;32.77;17.83;;;;;;;0.84;100.00;101598.25;5088567;28;20456;-65
2023/02/15 01:42:10;;;;;;;38.40;18.67;;;;;;;0.83;100.00;101605.25;5097407;28;21069;-66
2023/02/15 01:44:57;;;;;;;34.40;19.83;;;;;;;0.78;100.00;101607.16;5101256;28;20466;-66
2023/02/15 01:47:36;;;;;;;33.80;17.50;;;;;;;0.81;100.00;101607.09;5047407;28;20511;-66
2023/02/15 01:50:10;;;;;;;29.80;17.57;;;;;;;0.74;100.00;101601.13;5061205;28;20472;-66
2023/02/15 01:52:38;;;;;;;32.43;19.10;;;;;;;0.68;100.00;101592.56;5089643;28;20490;-66
2023/02/15 01:55:06;;;;;;;35.10;18.50;;;;;;;0.64;100.00;101589.13;5084418;28;20481;-66
2023/02/15 01:57:33;;;;;;;30.00;16.80;;;;;;;0.66;100.00;101597.00;5091171;28;20510;-66
2023/02/15 02:00:05;;;;;;;29.87;17.80;;;;;;;0.55;100.00;101594.69;5081784;28;20467;-65
2023/02/15 02:02:32;;;;;;;30.23;16.90;;;;;;;0.53;100.00;101596.50;5093094;28;20470;-67
2023/02/15 02:05:02;;;;;;;34.70;17.70;;;;;;;0.61;100.00;101593.63;5101261;28;20466;-65
2023/02/15 02:07:33;;;;;;;34.23;19.57;;;;;;;0.61;100.00;101591.88;5088588;28;20594;-65
2023/02/15 02:10:00;;;;;;;30.80;18.03;;;;;;;0.46;100.00;101590.53;5071350;28;20506;-65
2023/02/15 02:12:27;;;;;;;31.97;18.70;;;;;;;0.46;100.00;101594.94;5100059;28;20578;-65
2023/02/15 02:14:55;;;;;;;27.83;17.60;;;;;;;0.47;100.00;101587.00;5100889;28;20486;-64
2023/02/15 02:17:29;;;;;;;35.47;18.57;;;;;;;0.39;100.00;101577.59;5102081;28;20512;-64
2023/02/15 02:20:25;;;;;;;30.17;17.77;;;;;;;0.35;100.00;101582.94;5102295;28;20464;-64
2023/02/15 02:23:31;;;;;;;26.03;15.63;;;;;;;0.32;100.00;101580.38;5101712;28;20476;-65
2023/02/15 02:26:31;;;;;;;35.87;18.73;;;;;;;0.32;100.00;101582.16;5099443;28;20461;-65
2023/02/15 02:29:42;;;;;;;33.10;19.57;;;;;;;0.28;100.00;101581.38;5100855;28;20501;-65
2023/02/15 02:32:23;;;;;;;26.67;17.03;;;;;;;0.29;100.00;101580.47;5092073;28;20481;-65
2023/02/15 02:34:56;;;;;;;32.17;17.40;;;;;;;0.22;100.00;101568.41;5100547;28;20458;-64
2023/02/15 02:37:27;;;;;;;33.10;18.27;;;;;;;0.33;100.00;101573.34;5060517;28;20550;-65
2023/02/15 02:39:59;;;;;;;30.63;17.97;;;;;;;0.33;100.00;101571.59;5093448;28;20441;-65
2023/02/15 02:42:30;;;;;;;31.50;17.73;;;;;;;0.25;100.00;101570.09;5099374;28;20474;-65
2023/02/15 02:45:01;;;;;;;37.13;18.60;;;;;;;0.23;100.00;101567.50;5100844;28;20533;-65
2023/02/15 02:47:31;;;;;;;31.30;18.70;;;;;;;0.23;100.00;101566.66;5100499;28;20478;-65
2023/02/15 02:50:02;;;;;;;31.47;16.33;;;;;;;0.17;100.00;101562.41;5100698;28;20485;-65
2023/02/15 02:52:38;;;;;;;32.03;17.70;;;;;;;0.22;100.00;101568.41;5099374;28;21076;-65
2023/02/15 02:55:07;;;;;;;28.10;16.33;;;;;;;0.21;100.00;101555.28;5100382;28;20484;-66
2023/02/15 02:57:35;;;;;;;34.47;17.63;;;;;;;0.05;100.00;101557.47;5095350;28;20479;-66
2023/02/15 03:00:04;;;;;;;30.87;17.47;;;;;;;-0.04;100.00;101548.06;5096389;28;20454;-66
2023/02/15 03:02:33;;;;;;;31.47;17.43;;;;;;;-0.13;100.00;101540.44;5081589;28;20478;-65
2023/02/15 03:05:04;;;;;;;31.40;17.80;;;;;;;-0.22;100.00;101545.00;5081046;28;20453;-66
2023/02/15 03:07:32;;;;;;;30.07;18.30;;;;;;;-0.24;100.00;101548.59;5093268;28;20486;-65
2023/02/15 03:10:00;;;;;;;38.23;18.90;;;;;;;-0.21;100.00;101541.50;5086563;28;20651;-65
2023/02/15 03:12:29;;;;;;;32.87;18.77;;;;;;;-0.26;100.00;101542.50;5093716;28;20481;-65
2023/02/15 03:15:00;;;;;;;34.80;18.77;;;;;;;-0.26;100.00;101537.25;5081351;28;20466;-65
2023/02/15 03:17:28;;;;;;;31.93;19.07;;;;;;;-0.20;100.00;101545.84;5074515;28;20486;-66
2023/02/15 03:19:58;;;;;;;33.70;19.03;;;;;;;-0.18;100.00;101545.78;5076008;28;20452;-65
2023/02/15 03:22:29;;;;;;;33.47;19.00;;;;;;;-0.21;100.00;101541.50;5078708;28;20478;-65
2023/02/15 03:24:58;;;;;;;33.80;17.90;;;;;;;-0.16;100.00;101549.25;5094213;28;20476;-65
2023/02/15 03:27:26;;;;;;;33.40;18.03;;;;;;;-0.20;100.00;101547.59;5099262;28;20607;-66
2023/02/15 03:29:55;;;;;;;37.00;20.50;;;;;;;-0.12;100.00;101545.66;5100755;28;20465;-67
2023/02/15 03:32:23;;;;;;;33.53;18.60;;;;;;;-0.31;100.00;101539.13;5064813;28;20483;-65
2023/02/15 03:34:49;;;;;;;33.73;19.10;;;;;;;-0.25;100.00;101539.81;5076661;28;21260;-65
2023/02/15 03:37:20;;;;;;;38.93;20.70;;;;;;;-0.19;100.00;101533.56;5099927;28;20865;-65
2023/02/15 03:39:50;;;;;;;37.53;19.47;;;;;;;-0.26;100.00;101542.50;5100592;28;20430;-65
2023/02/15 03:42:19;;;;;;;35.20;18.10;;;;;;;-0.21;100.00;101537.97;5099530;28;20481;-64
2023/02/15 03:44:52;;;;;;;38.13;20.33;;;;;;;-0.30;100.00;101538.22;5103170;28;20522;-65
2023/02/15 03:47:21;;;;;;;35.60;19.50;;;;;;;-0.26;100.00;101532.88;5103835;28;20478;-64
2023/02/15 03:49:51;;;;;;;37.37;19.27;;;;;;;-0.34;100.00;101533.97;5103938;28;20474;-63
2023/02/15 03:52:19;;;;;;;43.03;21.47;;;;;;;-0.38;100.00;101531.41;5102668;28;20502;-63
2023/02/15 03:54:46;;;;;;;42.33;21.03;;;;;;;-0.45;100.00;101526.34;5104176;28;20426;-62
2023/02/15 04:03:06;;;;;;;39.73;22.77;;;;;;;-0.48;100.00;101527.28;5104569;28;20461;-62
2023/02/15 04:05:32;;;;;;;39.00;22.27;;;;;;;-0.49;100.00;101525.56;5102853;28;20537;-62
2023/02/15 04:07:59;;;;;;;39.27;21.33;;;;;;;-0.50;100.00;101529.09;5103513;28;20514;-62
2023/02/15 04:13:11;;;;;;;36.87;18.43;;;;;;;-0.54;100.00;101526.56;5103881;28;20444;-63
2023/02/15 04:18:21;;;;;;;37.17;20.20;;;;;;;-0.64;100.00;101518.94;5073663;28;20501;-62
2023/02/15 04:26:16;;;;;;;35.23;20.40;;;;;;;-0.67;100.00;101521.63;5062586;28;20493;-65
2023/02/15 04:28:44;;;;;;;40.00;19.73;;;;;;;-0.69;100.00;101519.94;5063188;28;20563;-65
2023/02/15 04:31:11;;;;;;;39.67;21.20;;;;;;;-0.70;100.00;101523.47;5062527;28;20510;-65
2023/02/15 04:33:38;;;;;;;44.23;22.57;;;;;;;-0.71;100.00;101521.72;5066045;28;20460;-65
2023/02/15 04:36:05;;;;;;;35.87;18.60;;;;;;;-0.73;100.00;101513.88;5090734;28;20504;-64
2023/02/15 04:38:31;;;;;;;48.43;23.70;;;;;;;-0.80;100.00;101513.19;5103137;28;20472;-65
2023/02/15 04:40:58;;;;;;;37.50;21.27;;;;;;;-0.71;100.00;101514.72;5102585;28;20477;-65
2023/02/15 04:43:25;;;;;;;36.20;20.17;;;;;;;-0.79;100.00;101506.16;5102800;28;20522;-65
2023/02/15 04:45:54;;;;;;;45.33;22.07;;;;;;;-0.80;100.00;101500.06;5102233;28;20499;-65
2023/02/15 04:48:20;;;;;;;38.93;21.33;;;;;;;-0.86;100.00;101499.34;5102135;28;20471;-65
2023/02/15 04:50:47;;;;;;;41.07;22.10;;;;;;;-0.87;100.00;101489.72;5102562;28;21129;-65
2023/02/15 04:53:16;;;;;;;42.83;24.27;;;;;;;-0.86;100.00;101489.69;5103392;28;20461;-65
2023/02/15 04:55:43;;;;;;;38.80;21.97;;;;;;;-0.85;100.00;101488.81;5102350;28;20548;-65
2023/02/15 04:58:09;;;;;;;39.40;19.50;;;;;;;-0.73;100.00;101486.75;5101312;28;20564;-66
2023/02/15 05:00:36;;;;;;;41.07;23.70;;;;;;;-0.83;100.00;101499.28;5097881;28;20480;-65
2023/02/15 05:03:04;;;;;;;33.80;19.23;;;;;;;-0.85;100.00;101496.69;5082688;28;20888;-69
2023/02/15 05:05:31;;;;;;;37.63;21.03;;;;;;;-0.83;100.00;101484.38;5083844;28;20472;-70
2023/02/15 05:07:57;;;;;;;39.03;20.57;;;;;;;-0.91;100.00;101490.72;5082947;28;20478;-69
2023/02/15 05:10:24;;;;;;;36.03;20.07;;;;;;;-0.96;100.00;101481.16;5080155;28;20525;-70
2023/02/15 05:12:50;;;;;;;39.90;20.73;;;;;;;-0.87;100.00;101498.47;5062257;28;20448;-70
2023/02/15 05:15:17;;;;;;;41.20;20.43;;;;;;;-0.90;100.00;101495.94;5061225;28;20486;-70
2023/02/15 05:17:44;;;;;;;38.30;19.47;;;;;;;-0.95;100.00;101484.69;5063052;28;20432;-71
2023/02/15 05:20:12;;;;;;;40.10;21.10;;;;;;;-0.81;100.00;101490.44;5063440;28;20482;-68
2023/02/15 05:22:40;;;;;;;38.33;19.70;;;;;;;-0.82;100.00;101493.09;5066220;28;20465;-69
2023/02/15 05:28:21;;;;;;;34.77;19.03;;;;;;;-0.91;100.00;101488.94;5062341;28;20527;-68
2023/02/15 05:30:48;;;;;;;39.97;19.50;;;;;;;-0.98;100.00;101485.59;5061799;28;20499;-69
2023/02/15 05:33:14;;;;;;;30.27;17.73;;;;;;;-1.07;100.00;101484.97;5082920;28;20453;-69
2023/02/15 05:35:43;;;;;;;40.53;22.07;;;;;;;-1.04;100.00;101477.88;5078567;28;20546;-69
2023/02/15 05:38:10;;;;;;;37.30;20.50;;;;;;;-1.06;100.00;101476.19;5080107;28;20442;-68
2023/02/15 06:09:38;;;;;;;42.50;23.53;;;;;;;-0.99;100.00;101481.25;5157972;27;21170;-72
2023/02/15 06:12:05;;;;;;;37.10;19.07;;;;;;;-0.97;100.00;101479.47;5127105;27;20521;-65
2023/02/15 06:14:31;;;;;;;46.80;23.97;;;;;;;-0.95;100.00;101479.44;5126298;28;20449;-66
2023/02/15 06:16:58;;;;;;;47.20;22.97;;;;;;;-0.92;100.00;101475.84;5124894;28;20589;-65
2023/02/15 06:19:25;;;;;;;43.20;23.23;;;;;;;-0.95;100.00;101474.19;5115240;28;20470;-73
2023/02/15 06:21:51;;;;;;;44.53;22.50;;;;;;;-0.89;100.00;101475.78;5117741;27;20996;-73
2023/02/15 06:24:18;;;;;;;47.53;22.90;;;;;;;-0.72;100.00;101470.13;5126866;28;20449;-74
2023/02/15 06:26:46;;;;;;;50.43;25.43;;;;;;;-0.73;100.00;101474.50;5122669;27;20505;-72
2023/02/15 06:29:13;;;;;;;49.03;24.23;;;;;;;-0.84;100.00;101471.28;5107938;28;20475;-74
2023/02/15 06:31:40;;;;;;;44.10;22.60;;;;;;;-0.73;100.00;101478.88;5106523;27;20478;-74
2023/02/15 06:34:07;;;;;;;44.13;21.93;;;;;;;-0.64;100.00;101479.53;5116004;28;20452;-74
2023/02/15 06:36:34;;;;;;;51.23;23.23;;;;;;;-0.73;100.00;101485.00;5103621;28;20499;-71
2023/02/15 06:39:02;;;;;;;43.63;21.47;;;;;;;-0.61;100.00;101489.97;5106044;28;20465;-73
2023/02/15 06:41:29;;;;;;;37.50;19.97;;;;;;;-0.58;100.00;101475.88;5106087;27;20573;-73
2023/02/15 06:43:57;;;;;;;43.27;23.30;;;;;;;-0.66;100.00;101472.59;5105381;28;20447;-74
2023/02/15 06:46:23;;;;;;;53.57;23.23;;;;;;;-0.67;100.00;101471.72;5104384;27;20478;-73
2023/02/15 06:48:50;;;;;;;40.37;20.97;;;;;;;-0.66;100.00;101473.47;5100288;28;20483;-74
2023/02/15 06:51:17;;;;;;;41.63;20.33;;;;;;;-0.59;100.00;101467.16;5104998;28;21006;-74
2023/02/15 06:53:43;;;;;;;43.10;22.50;;;;;;;-0.61;100.00;101474.22;5090175;28;21156;-74
2023/02/15 06:56:11;;;;;;;41.60;21.60;;;;;;;-0.69;100.00;101475.31;5092476;28;20540;-71
2023/02/15 06:58:37;;;;;;;42.40;21.97;;;;;;;-0.66;100.00;101475.19;5096013;28;20463;-74
2023/02/15 07:01:06;;;;;;;43.23;21.23;;;;;;;-0.71;100.00;101466.56;5095333;28;20547;-74
2023/02/15 07:03:33;;;;;;;41.63;21.13;;;;;;;-0.74;100.00;101464.06;5084117;28;20456;-74
2023/02/15 07:06:01;;;;;;;44.40;21.50;;;;;;;-0.62;100.00;101464.59;5100654;27;20474;-73
2023/02/15 07:08:28;;;;;;;42.93;21.27;;;;;;;-0.38;100.00;101476.22;5098925;28;20527;-74
2023/02/15 07:12:40;;;;;;;29.63;18.70;;;;;;;-0.55;100.00;101474.97;5092920;28;20491;-74
2023/02/15 07:13:43;;;;;;;37.83;20.30;;;;;;;-0.43;100.00;101478.13;5094885;28;20439;-75
2023/02/15 07:16:11;;;;;;;46.83;21.97;;;;;;;-0.41;100.00;101467.56;5095902;27;20484;-75
2023/02/15 07:18:38;;;;;;;43.50;21.20;;;;;;;-0.39;100.00;101471.00;5106691;28;20679;-74
2023/02/15 07:21:07;;;;;;;42.67;20.43;;;;;;;-0.33;100.00;101462.97;5082772;28;20468;-75
2023/02/15 07:46:07;;;;;;;31.37;18.30;;;;;;;0.53;100.00;101459.66;5119399;27;20981;-73
2023/02/15 07:48:34;;;;;;;27.23;16.23;;;;;;;0.69;100.00;101458.25;5110791;28;20450;-72
2023/02/15 07:51:01;;;;;;;32.33;17.17;;;;;;;0.69;100.00;101465.31;5095401;28;20485;-73
2023/02/15 07:53:28;;;;;;;31.03;17.23;;;;;;;1.02;100.00;101446.72;5111577;28;20445;-72
2023/02/15 07:55:55;;;;;;;28.67;18.37;;;;;;;2.01;100.00;101454.72;5111857;28;21049;-70
2023/02/15 07:58:50;;;;;;;28.97;18.27;;;;;;;2.98;100.00;101443.94;5117214;28;20453;-72
2023/02/15 08:01:10;;;;;;;28.43;18.87;;;;;;;3.90;100.00;101435.66;5117627;27;20470;-73
2023/02/15 08:03:37;;;;;;;27.17;17.03;;;;;;;4.07;100.00;101427.81;5119421;28;20427;-73
2023/02/15 08:06:04;;;;;;;28.90;18.50;;;;;;;4.39;100.00;101433.41;5117920;27;20515;-72
2023/02/15 08:08:31;;;;;;;25.60;15.37;;;;;;;4.58;100.00;101437.84;5130738;28;20470;-73
2023/02/15 08:13:58;;;;;;;19.30;13.87;;;;;;;4.66;100.00;101427.75;5118201;28;20826;-73
2023/02/15 08:16:31;;;;;;;18.80;13.27;;;;;;;5.41;100.00;101420.53;5116469;27;20677;-74
2023/02/15 08:18:59;;;;;;;19.70;12.77;;;;;;;4.67;100.00;101414.44;5117691;27;20558;-73
2023/02/15 08:21:27;;;;;;;19.13;13.10;;;;;;;5.51;100.00;101413.81;5117353;27;20479;-75
2023/02/15 08:23:54;;;;;;;20.30;14.17;;;;;;;5.44;100.00;101377.94;5116950;28;20436;-72
2023/02/15 08:26:22;;;;;;;18.70;11.73;;;;;;;5.09;100.00;101405.31;5116374;27;20470;-74
2023/02/15 08:28:49;;;;;;;18.10;12.40;;;;;;;6.06;100.00;101404.75;5097000;28;20466;-74
2023/02/15 08:31:17;;;;;;;19.40;13.30;;;;;;;6.13;100.00;101402.63;5095951;28;21008;-75
2023/02/15 08:33:46;;;;;;;20.93;13.10;;;;;;;6.63;100.00;101398.09;5111342;28;20451;-74
2023/02/15 08:36:15;;;;;;;17.50;12.30;;;;;;;5.87;100.00;101396.03;5095960;28;20490;-73
2023/02/15 08:38:42;;;;;;;18.47;13.03;;;;;;;5.19;100.00;101394.22;5096972;28;20453;-74
2023/02/15 08:41:14;;;;;;;17.17;12.30;;;;;;;6.67;100.00;101403.16;5095959;28;20478;-72
2023/02/15 08:43:41;;;;;;;16.53;11.73;;;;;;;8.64;92.95;101393.03;5096640;28;21044;-74
2023/02/15 08:46:09;;;;;;;17.80;12.53;;;;;;;9.54;82.04;101387.91;5095078;28;20491;-75
2023/02/15 08:48:36;;;;;;;23.33;13.90;;;;;;;6.58;93.35;101382.44;5107253;28;20487;-71
2023/02/15 08:51:10;;;;;;;17.83;11.80;;;;;;;6.59;97.79;101384.97;5093847;28;20475;-74
2023/02/15 08:53:38;;;;;;;19.10;13.13;;;;;;;7.08;92.90;101380.44;5096924;28;20447;-76
2023/02/15 08:56:05;;;;;;;21.07;13.13;;;;;;;8.35;86.31;101378.88;5102262;27;20499;-75
2023/02/15 08:58:31;;;;;;;18.03;12.10;;;;;;;8.61;80.24;101366.56;5081843;28;20463;-72
2023/02/15 09:00:58;;;;;;;18.07;12.50;;;;;;;8.35;82.99;101384.22;5081269;28;20471;-76
2023/02/15 09:03:27;;;;;;;14.93;11.60;;;;;;;8.20;82.12;101380.72;5083819;28;20448;-74
2023/02/15 09:05:59;;;;;;;17.87;11.70;;;;;;;7.63;86.56;101384.25;5080561;28;20539;-74
2023/02/15 09:08:28;;;;;;;13.97;11.17;;;;;;;8.16;83.14;101382.75;5083205;28;20445;-73
2023/02/15 09:10:55;;;;;;;15.83;11.90;;;;;;;7.75;85.94;101377.34;5081808;28;20491;-74
2023/02/15 09:13:22;;;;;;;14.93;11.20;;;;;;;7.27;88.51;101381.03;5082114;28;20448;-72
2023/02/15 09:15:49;;;;;;;14.40;12.00;;;;;;;6.34;94.96;101382.84;5101063;28;20486;-74
2023/02/15 09:18:17;;;;;;;14.80;10.77;;;;;;;6.35;97.19;101379.28;5097550;28;20534;-74
2023/02/15 09:20:44;;;;;;;16.50;11.97;;;;;;;7.16;93.00;101372.88;5082522;28;20476;-73
2023/02/15 09:23:11;;;;;;;19.57;12.53;;;;;;;7.19;91.00;101370.03;5081955;28;20452;-74
2023/02/15 09:25:39;;;;;;;18.40;13.07;;;;;;;6.78;91.62;101371.50;5090257;28;20468;-76
2023/02/15 09:28:06;;;;;;;16.20;11.20;;;;;;;6.66;95.91;101376.66;5089265;28;20703;-73
2023/02/15 09:30:32;;;;;;;19.40;12.80;;;;;;;7.29;92.50;101373.84;5101253;28;20903;-76
2023/02/15 09:32:59;;;;;;;16.80;12.73;;;;;;;7.52;90.94;101377.78;5082718;28;20461;-76
2023/02/15 09:35:26;;;;;;;16.90;12.20;;;;;;;7.25;92.04;101371.47;5081765;28;20476;-76
2023/02/15 09:37:53;;;;;;;14.97;11.03;;;;;;;6.86;93.35;101371.06;5078992;28;20460;-74
2023/02/15 09:40:19;;;;;;;14.67;11.07;;;;;;;7.47;91.50;101365.72;5080740;28;20452;-76
2023/02/15 09:43:08;;;;;;;14.27;11.27;;;;;;;7.57;88.00;101368.66;5082794;28;20452;-75
2023/02/15 09:45:49;;;;;;;13.10;9.90;;;;;;;9.34;81.34;101352.78;5072699;28;20831;-76
2023/02/15 09:48:31;;;;;;;15.77;11.20;;;;;;;9.01;79.34;101354.13;5082173;28;20453;-74
2023/02/15 09:51:08;;;;;;;15.90;11.27;;;;;;;8.63;82.55;101364.69;5081227;28;20498;-74
2023/02/15 09:53:44;;;;;;;14.63;10.93;;;;;;;8.04;83.94;101362.22;5082942;28;20448;-74
2023/02/15 09:56:16;;;;;;;17.27;13.20;;;;;;;7.96;86.93;101349.34;5089764;28;20491;-78
2023/02/15 09:58:49;;;;;;;17.17;12.27;;;;;;;9.56;79.55;101351.28;5096885;28;20475;-72
2023/02/15 10:01:24;;;;;;;17.63;12.70;;;;;;;7.88;85.98;101352.53;5080176;28;20476;-76
2023/02/15 10:04:04;;;;;;;15.13;11.10;;;;;;;8.42;85.40;101353.53;5079738;28;21366;-77
2023/02/15 10:06:42;;;;;;;13.97;10.40;;;;;;;8.61;82.58;101359.44;5091558;28;20498;-76
2023/02/15 10:09:23;;;;;;;14.90;11.27;;;;;;;7.49;90.47;101362.00;5100417;28;20467;-76
2023/02/15 10:11:59;;;;;;;12.17;10.70;;;;;;;8.73;84.75;101359.56;5099971;28;20481;-75
2023/02/15 10:14:41;;;;;;;14.87;11.43;;;;;;;9.50;81.71;101349.06;5081807;28;20445;-77
2023/02/15 10:17:19;;;;;;;14.80;10.13;;;;;;;10.86;68.02;101357.06;5081958;28;20522;-78
2023/02/15 10:19:53;;;;;;;13.53;9.93;;;;;;;9.12;79.66;101357.88;5081343;28;20444;-76
2023/02/15 10:22:28;;;;;;;14.53;10.80;;;;;;;9.76;77.74;101352.56;5080797;28;20510;-78
2023/02/15 10:25:11;;;;;;;14.47;10.43;;;;;;;9.97;74.81;101350.19;5082672;28;20445;-77
2023/02/15 10:27:45;;;;;;;14.27;10.67;;;;;;;9.60;77.63;101344.78;5080532;28;20568;-76
2023/02/15 10:30:15;;;;;;;14.90;10.17;;;;;;;8.81;82.69;101352.78;5080799;28;20429;-75
2023/02/15 10:32:52;;;;;;;14.47;10.80;;;;;;;11.66;67.73;101350.06;5082560;28;20471;-74
2023/02/15 10:35:25;;;;;;;13.07;10.60;;;;;;;10.29;73.60;101349.69;5081749;28;20480;-74
2023/02/15 10:38:07;;;;;;;13.33;9.90;;;;;;;10.32;70.63;101345.00;5080976;28;20460;-78
2023/02/15 10:40:40;;;;;;;11.77;9.80;;;;;;;10.83;72.11;101346.63;5083020;28;20510;-77
2023/02/15 10:43:19;;;;;;;15.20;10.13;;;;;;;10.49;71.47;101349.09;5083726;28;20478;-76
2023/02/15 10:45:56;;;;;;;13.43;10.27;;;;;;;9.63;79.70;101341.03;5081084;28;20479;-75
2023/02/15 10:48:30;;;;;;;14.90;11.90;;;;;;;9.41;79.94;101334.53;5041676;28;20497;-76
2023/02/15 10:50:58;;;;;;;14.53;10.97;;;;;;;10.44;73.38;101334.38;5053503;28;20481;-76
2023/02/15 10:53:49;;;;;;;15.50;11.53;;;;;;;9.37;81.95;101327.69;5062396;28;20529;-74
2023/02/15 10:56:20;;;;;;;13.47;10.70;;;;;;;10.23;75.26;101326.94;5063625;28;20497;-77
2023/02/15 10:59:08;;;;;;;15.63;9.87;;;;;;;9.36;82.09;101323.31;5080205;28;20474;-74
2023/02/15 11:01:41;;;;;;;17.60;10.77;;;;;;;11.02;74.67;101318.44;5065067;28;20479;-76
2023/02/15 11:04:41;;;;;;;17.60;11.13;;;;;;;11.61;74.61;101320.13;5061816;28;20468;-76
2023/02/15 11:07:14;;;;;;;13.63;9.97;;;;;;;10.86;74.26;101321.44;5059404;28;20493;-75
2023/02/15 11:09:45;;;;;;;14.20;10.00;;;;;;;11.72;69.84;101327.31;5079992;28;20447;-76
2023/02/15 11:12:14;;;;;;;13.60;10.53;;;;;;;11.44;65.97;101319.63;5069146;28;21004;-73
2023/02/15 11:14:47;;;;;;;15.10;10.53;;;;;;;9.90;79.30;101323.06;5064539;28;20445;-73
2023/02/15 11:17:18;;;;;;;14.43;11.27;;;;;;;9.75;79.24;101314.31;5063629;28;20473;-76
2023/02/15 11:19:51;;;;;;;18.43;12.83;;;;;;;9.12;81.34;101316.03;5060110;28;20536;-71
2023/02/15 11:22:18;;;;;;;14.73;11.20;;;;;;;11.12;73.35;101322.97;5059756;28;20508;-76
2023/02/15 11:24:46;;;;;;;13.20;10.60;;;;;;;9.65;76.57;101310.59;5060015;28;20438;-73
2023/02/15 11:27:20;;;;;;;15.03;10.93;;;;;;;9.79;80.16;101301.59;5066049;28;20536;-76
2023/02/15 11:29:53;;;;;;;17.23;11.70;;;;;;;10.38;76.59;101306.28;5072591;28;20483;-74
2023/02/15 11:32:24;;;;;;;16.33;11.70;;;;;;;11.04;72.53;101309.34;5072355;28;20476;-74
2023/02/15 11:34:54;;;;;;;16.20;12.20;;;;;;;11.23;71.46;101295.41;5058089;28;20446;-75
2023/02/15 11:37:25;;;;;;;16.03;12.20;;;;;;;9.95;78.01;101301.38;5060444;28;20517;-73
2023/02/15 11:39:54;;;;;;;18.07;12.40;;;;;;;9.97;78.20;101300.28;5059195;28;20447;-71
2023/02/15 11:42:23;;;;;;;13.87;11.50;;;;;;;9.68;80.82;101299.69;5058055;28;20505;-75
2023/02/15 11:44:57;;;;;;;16.83;11.93;;;;;;;11.26;75.68;101305.00;5070113;28;20562;-75
2023/02/15 11:47:25;;;;;;;16.47;12.23;;;;;;;10.65;75.23;101299.84;5083914;28;20505;-71
2023/02/15 11:49:52;;;;;;;16.47;11.70;;;;;;;11.01;72.36;101293.50;5077133;28;20470;-73
2023/02/15 11:52:19;;;;;;;17.83;12.43;;;;;;;9.86;79.14;101292.19;5078944;28;20487;-75
2023/02/15 11:54:49;;;;;;;18.73;11.17;;;;;;;10.67;79.80;101288.03;5079705;28;20441;-75
2023/02/15 11:57:20;;;;;;;16.53;11.50;;;;;;;11.07;76.78;101287.66;5078092;28;20562;-76
2023/02/15 11:59:50;;;;;;;16.70;11.00;;;;;;;9.76;80.50;101285.81;5079230;28;20476;-73
2023/02/15 12:02:18;;;;;;;15.67;11.60;;;;;;;10.13;82.66;101283.97;5079666;28;20495;-75
2023/02/15 12:04:50;;;;;;;19.10;12.90;;;;;;;9.96;82.86;101279.00;5079540;28;20817;-77
2023/02/15 12:07:22;;;;;;;20.30;12.00;;;;;;;10.15;82.28;101274.03;5077141;28;20524;-76
2023/02/15 12:09:51;;;;;;;20.30;12.70;;;;;;;9.51;86.38;101268.00;5080562;28;20563;-75
2023/02/15 12:12:23;;;;;;;16.17;12.10;;;;;;;9.36;87.40;101272.63;5078128;28;20479;-69
2023/02/15 12:14:51;;;;;;;21.03;11.97;;;;;;;10.53;81.64;101277.53;5079373;28;20496;-75
2023/02/15 12:17:18;;;;;;;16.00;12.77;;;;;;;11.02;76.55;101267.59;5079314;28;21184;-76
2023/02/15 12:19:50;;;;;;;18.43;11.83;;;;;;;10.11;80.29;101267.22;5079052;28;20503;-72
2023/02/15 12:22:23;;;;;;;17.23;13.17;;;;;;;10.58;77.40;101264.69;5079770;28;20551;-76
2023/02/15 12:24:52;;;;;;;22.43;13.80;;;;;;;11.20;74.41;101268.84;5077655;28;20457;-76
2023/02/15 12:27:20;;;;;;;19.47;12.40;;;;;;;10.82;78.42;101263.78;5087580;28;20483;-75
2023/02/15 12:29:50;;;;;;;18.83;13.47;;;;;;;10.62;79.91;101251.91;5082883;28;20455;-74
2023/02/15 12:32:19;;;;;;;16.80;12.63;;;;;;;10.38;79.28;101257.28;5081561;28;20484;-75
2023/02/15 12:34:47;;;;;;;22.67;13.47;;;;;;;11.07;76.17;101249.38;5102565;28;20447;-76
2023/02/15 12:37:18;;;;;;;15.13;11.87;;;;;;;10.46;80.33;101249.56;5089072;28;20487;-75